sensor_id;sensor_type;location;lat;lon;timestamp;pressure;altitude;pressure_sealevel;temperature;humidity
39487;BME280;25173;50.430;18.926;2023-02-04T00:02:15;97426.81;;;5.01;84.90
39487;BME280;25173;50.430;18.926;2023-02-04T00:05:17;97427.66;;;5.01;84.66
39487;BME280;25173;50.430;18.926;2023-02-04T00:08:18;97424.69;;;5.03;84.72
39487;BME280;25173;50.430;18.926;2023-02-04T00:11:19;97426.03;;;5.05;84.78
39487;BME280;25173;50.430;18.926;2023-02-04T00:14:19;97417.44;;;5.08;84.95
39487;BME280;25173;50.430;18.926;2023-02-04T00:17:20;97406.66;;;5.08;84.90
39487;BME280;25173;50.430;18.926;2023-02-04T00:20:21;97411.00;;;5.10;84.46
39487;BME280;25173;50.430;18.926;2023-02-04T00:23:22;97413.97;;;5.13;84.60
39487;BME280;25173;50.430;18.926;2023-02-04T00:26:22;97408.88;;;5.17;84.64
39487;BME280;25173;50.430;18.926;2023-02-04T00:29:23;97405.63;;;5.15;84.38
39487;BME280;25173;50.430;18.926;2023-02-04T00:32:24;97408.31;;;5.15;84.22
39487;BME280;25173;50.430;18.926;2023-02-04T00:35:24;97416.41;;;5.15;84.30
39487;BME280;25173;50.430;18.926;2023-02-04T00:38:26;97416.91;;;5.12;84.06
39487;BME280;25173;50.430;18.926;2023-02-04T00:41:26;97410.41;;;5.07;84.12
39487;BME280;25173;50.430;18.926;2023-02-04T00:44:27;97406.06;;;5.01;84.19
39487;BME280;25173;50.430;18.926;2023-02-04T00:47:28;97416.84;;;5.01;84.51
39487;BME280;25173;50.430;18.926;2023-02-04T00:50:30;97422.75;;;4.98;84.52
39487;BME280;25173;50.430;18.926;2023-02-04T00:53:30;97413.81;;;4.93;84.58
39487;BME280;25173;50.430;18.926;2023-02-04T00:56:31;97419.69;;;4.90;84.72
39487;BME280;25173;50.430;18.926;2023-02-04T00:59:32;97397.38;;;4.94;84.94
39487;BME280;25173;50.430;18.926;2023-02-04T01:02:33;97401.13;;;4.93;84.74
39487;BME280;25173;50.430;18.926;2023-02-04T01:05:34;97399.28;;;4.99;84.74
39487;BME280;25173;50.430;18.926;2023-02-04T01:08:34;97418.16;;;4.99;84.66
39487;BME280;25173;50.430;18.926;2023-02-04T01:11:35;97424.28;;;4.89;85.04
39487;BME280;25173;50.430;18.926;2023-02-04T01:14:35;97433.31;;;4.73;85.16
39487;BME280;25173;50.430;18.926;2023-02-04T01:17:36;97441.63;;;4.45;85.94
39487;BME280;25173;50.430;18.926;2023-02-04T01:20:37;97449.47;;;4.24;86.85
39487;BME280;25173;50.430;18.926;2023-02-04T01:23:38;97440.72;;;4.12;87.65
39487;BME280;25173;50.430;18.926;2023-02-04T01:26:38;97426.09;;;4.08;87.93
39487;BME280;25173;50.430;18.926;2023-02-04T01:29:39;97425.41;;;3.96;88.29
39487;BME280;25173;50.430;18.926;2023-02-04T01:32:40;97449.59;;;3.91;88.45
39487;BME280;25173;50.430;18.926;2023-02-04T01:35:41;97439.25;;;3.83;88.93
39487;BME280;25173;50.430;18.926;2023-02-04T01:38:41;97455.72;;;3.86;89.03
39487;BME280;25173;50.430;18.926;2023-02-04T01:41:42;97453.19;;;3.80;89.30
39487;BME280;25173;50.430;18.926;2023-02-04T01:44:43;97449.38;;;3.76;89.54
39487;BME280;25173;50.430;18.926;2023-02-04T01:47:44;97452.31;;;3.74;89.50
39487;BME280;25173;50.430;18.926;2023-02-04T01:50:50;97455.66;;;3.81;89.57
39487;BME280;25173;50.430;18.926;2023-02-04T01:53:54;97455.88;;;3.80;89.36
39487;BME280;25173;50.430;18.926;2023-02-04T01:56:57;97471.66;;;3.71;89.07
39487;BME280;25173;50.430;18.926;2023-02-04T01:59:57;97471.75;;;3.60;88.86
39487;BME280;25173;50.430;18.926;2023-02-04T02:02:59;97475.44;;;3.54;88.98
39487;BME280;25173;50.430;18.926;2023-02-04T02:05:59;97466.16;;;3.44;89.08
39487;BME280;25173;50.430;18.926;2023-02-04T02:09:00;97472.81;;;3.42;89.08
39487;BME280;25173;50.430;18.926;2023-02-04T02:12:02;97471.44;;;3.39;89.03
39487;BME280;25173;50.430;18.926;2023-02-04T02:15:04;97475.38;;;3.32;88.80
39487;BME280;25173;50.430;18.926;2023-02-04T02:18:05;97480.50;;;3.33;88.86
39487;BME280;25173;50.430;18.926;2023-02-04T02:21:09;97487.44;;;3.29;88.96
39487;BME280;25173;50.430;18.926;2023-02-04T02:24:28;97480.91;;;3.25;88.95
39487;BME280;25173;50.430;18.926;2023-02-04T02:27:29;97494.25;;;3.20;88.89
39487;BME280;25173;50.430;18.926;2023-02-04T02:30:31;97498.81;;;3.20;88.93
39487;BME280;25173;50.430;18.926;2023-02-04T02:33:32;97494.84;;;3.22;88.86
39487;BME280;25173;50.430;18.926;2023-02-04T02:36:33;97504.53;;;3.23;88.44
39487;BME280;25173;50.430;18.926;2023-02-04T02:39:36;97500.16;;;3.17;88.26
39487;BME280;25173;50.430;18.926;2023-02-04T02:42:38;97499.22;;;3.11;88.17
39487;BME280;25173;50.430;18.926;2023-02-04T02:45:39;97513.50;;;3.12;88.27
39487;BME280;25173;50.430;18.926;2023-02-04T02:48:39;97514.06;;;3.14;88.57
39487;BME280;25173;50.430;18.926;2023-02-04T02:51:41;97517.72;;;3.08;88.22
39487;BME280;25173;50.430;18.926;2023-02-04T02:54:42;97530.00;;;3.04;88.30
39487;BME280;25173;50.430;18.926;2023-02-04T02:57:47;97546.31;;;2.97;88.38
39487;BME280;25173;50.430;18.926;2023-02-04T03:00:48;97540.84;;;2.92;88.67
39487;BME280;25173;50.430;18.926;2023-02-04T03:03:49;97564.22;;;2.92;88.62
39487;BME280;25173;50.430;18.926;2023-02-04T03:06:52;97568.47;;;2.88;88.67
39487;BME280;25173;50.430;18.926;2023-02-04T03:09:53;97566.16;;;2.80;88.55
39487;BME280;25173;50.430;18.926;2023-02-04T03:12:54;97584.38;;;2.78;88.99
39487;BME280;25173;50.430;18.926;2023-02-04T03:15:54;97576.00;;;2.74;88.88
39487;BME280;25173;50.430;18.926;2023-02-04T03:18:56;97583.34;;;2.67;88.94
39487;BME280;25173;50.430;18.926;2023-02-04T03:21:57;97601.75;;;2.58;88.97
39487;BME280;25173;50.430;18.926;2023-02-04T03:24:57;97609.44;;;2.55;89.34
39487;BME280;25173;50.430;18.926;2023-02-04T03:27:58;97620.09;;;2.50;89.45
39487;BME280;25173;50.430;18.926;2023-02-04T03:30:59;97629.34;;;2.42;89.34
39487;BME280;25173;50.430;18.926;2023-02-04T03:34:00;97631.31;;;2.35;89.38
39487;BME280;25173;50.430;18.926;2023-02-04T03:37:00;97654.31;;;2.31;89.51
39487;BME280;25173;50.430;18.926;2023-02-04T03:40:01;97669.25;;;2.04;89.42
39487;BME280;25173;50.430;18.926;2023-02-04T03:43:01;97700.19;;;1.94;89.49
39487;BME280;25173;50.430;18.926;2023-02-04T03:46:02;97717.34;;;1.93;89.51
39487;BME280;25173;50.430;18.926;2023-02-04T03:49:03;97744.78;;;1.95;89.25
39487;BME280;25173;50.430;18.926;2023-02-04T03:52:04;97766.97;;;1.91;88.72
39487;BME280;25173;50.430;18.926;2023-02-04T03:55:04;97786.06;;;1.83;88.67
39487;BME280;25173;50.430;18.926;2023-02-04T03:58:05;97804.34;;;1.74;88.53
39487;BME280;25173;50.430;18.926;2023-02-04T04:01:06;97818.00;;;1.73;88.51
39487;BME280;25173;50.430;18.926;2023-02-04T04:04:07;97839.47;;;1.73;88.31
39487;BME280;25173;50.430;18.926;2023-02-04T04:07:07;97883.53;;;1.65;88.33
39487;BME280;25173;50.430;18.926;2023-02-04T04:10:08;97903.09;;;1.54;88.01
39487;BME280;25173;50.430;18.926;2023-02-04T04:13:09;97892.19;;;1.49;88.34
39487;BME280;25173;50.430;18.926;2023-02-04T04:16:09;97911.63;;;1.44;88.22
39487;BME280;25173;50.430;18.926;2023-02-04T04:19:10;97929.44;;;1.39;88.40
39487;BME280;25173;50.430;18.926;2023-02-04T04:22:10;97951.72;;;1.39;88.14
39487;BME280;25173;50.430;18.926;2023-02-04T04:25:11;97977.28;;;1.42;88.02
39487;BME280;25173;50.430;18.926;2023-02-04T04:28:12;97986.38;;;1.41;87.93
39487;BME280;25173;50.430;18.926;2023-02-04T04:31:12;98003.75;;;1.38;87.59
39487;BME280;25173;50.430;18.926;2023-02-04T04:34:13;98027.88;;;1.38;87.76
39487;BME280;25173;50.430;18.926;2023-02-04T04:37:14;98042.75;;;1.34;87.29
39487;BME280;25173;50.430;18.926;2023-02-04T04:40:15;98070.19;;;1.36;87.28
39487;BME280;25173;50.430;18.926;2023-02-04T04:43:16;98088.31;;;1.41;87.27
39487;BME280;25173;50.430;18.926;2023-02-04T04:46:17;98103.84;;;1.39;86.86
39487;BME280;25173;50.430;18.926;2023-02-04T04:49:17;98118.69;;;1.35;86.53
39487;BME280;25173;50.430;18.926;2023-02-04T04:52:18;98117.72;;;1.29;86.36
39487;BME280;25173;50.430;18.926;2023-02-04T04:55:18;98146.41;;;1.29;86.40
39487;BME280;25173;50.430;18.926;2023-02-04T04:58:19;98171.78;;;1.33;86.25
39487;BME280;25173;50.430;18.926;2023-02-04T05:01:20;98193.22;;;1.33;85.76
39487;BME280;25173;50.430;18.926;2023-02-04T05:04:22;98220.88;;;1.27;85.45
39487;BME280;25173;50.430;18.926;2023-02-04T05:07:22;98215.56;;;1.20;84.90
39487;BME280;25173;50.430;18.926;2023-02-04T05:10:23;98230.81;;;1.20;84.96
39487;BME280;25173;50.430;18.926;2023-02-04T05:13:24;98256.44;;;1.15;84.24
39487;BME280;25173;50.430;18.926;2023-02-04T05:16:24;98284.47;;;1.20;84.52
39487;BME280;25173;50.430;18.926;2023-02-04T05:19:25;98296.47;;;1.17;83.91
39487;BME280;25173;50.430;18.926;2023-02-04T05:22:26;98319.13;;;1.21;84.09
39487;BME280;25173;50.430;18.926;2023-02-04T05:25:27;98334.41;;;1.21;83.83
39487;BME280;25173;50.430;18.926;2023-02-04T05:28:28;98362.06;;;1.14;82.97
39487;BME280;25173;50.430;18.926;2023-02-04T05:31:28;98374.66;;;1.07;82.68
39487;BME280;25173;50.430;18.926;2023-02-04T05:34:29;98379.41;;;1.05;83.00
39487;BME280;25173;50.430;18.926;2023-02-04T05:37:30;98397.16;;;1.06;82.45
39487;BME280;25173;50.430;18.926;2023-02-04T05:40:30;98415.28;;;1.04;82.08
39487;BME280;25173;50.430;18.926;2023-02-04T05:43:31;98435.91;;;0.97;80.92
39487;BME280;25173;50.430;18.926;2023-02-04T05:46:32;98465.41;;;0.91;80.87
39487;BME280;25173;50.430;18.926;2023-02-04T05:49:33;98463.56;;;0.91;81.38
39487;BME280;25173;50.430;18.926;2023-02-04T05:52:33;98484.19;;;0.91;80.93
39487;BME280;25173;50.430;18.926;2023-02-04T05:55:34;98498.41;;;0.91;80.92
39487;BME280;25173;50.430;18.926;2023-02-04T05:58:34;98504.81;;;0.90;80.39
39487;BME280;25173;50.430;18.926;2023-02-04T06:01:35;98511.19;;;0.89;79.78
39487;BME280;25173;50.430;18.926;2023-02-04T06:04:36;98550.00;;;0.93;80.29
39487;BME280;25173;50.430;18.926;2023-02-04T06:07:36;98556.38;;;0.99;80.09
39487;BME280;25173;50.430;18.926;2023-02-04T06:10:37;98557.63;;;0.96;79.24
39487;BME280;25173;50.430;18.926;2023-02-04T06:13:38;98587.94;;;0.97;80.03
39487;BME280;25173;50.430;18.926;2023-02-04T06:16:38;98594.75;;;0.99;79.85
39487;BME280;25173;50.430;18.926;2023-02-04T06:19:39;98621.56;;;0.99;79.94
39487;BME280;25173;50.430;18.926;2023-02-04T06:22:40;98632.13;;;1.07;80.17
39487;BME280;25173;50.430;18.926;2023-02-04T06:25:40;98648.00;;;1.02;79.04
39487;BME280;25173;50.430;18.926;2023-02-04T06:28:41;98654.38;;;1.01;79.34
39487;BME280;25173;50.430;18.926;2023-02-04T06:31:41;98692.94;;;1.00;79.36
39487;BME280;25173;50.430;18.926;2023-02-04T06:34:44;98693.78;;;1.01;79.22
39487;BME280;25173;50.430;18.926;2023-02-04T06:37:44;98700.16;;;1.00;79.18
39487;BME280;25173;50.430;18.926;2023-02-04T06:40:45;98713.41;;;1.08;79.44
39487;BME280;25173;50.430;18.926;2023-02-04T06:43:48;98725.19;;;1.13;79.39
39487;BME280;25173;50.430;18.926;2023-02-04T06:46:49;98750.75;;;1.09;78.74
39487;BME280;25173;50.430;18.926;2023-02-04T06:49:50;98763.53;;;1.07;78.44
39487;BME280;25173;50.430;18.926;2023-02-04T06:52:50;98766.19;;;1.01;77.83
39487;BME280;25173;50.430;18.926;2023-02-04T06:55:51;98784.34;;;1.05;78.69
39487;BME280;25173;50.430;18.926;2023-02-04T06:58:52;98802.34;;;1.11;78.58
39487;BME280;25173;50.430;18.926;2023-02-04T07:01:52;98819.22;;;1.05;77.42
39487;BME280;25173;50.430;18.926;2023-02-04T07:05:13;98821.28;;;1.03;77.96
39487;BME280;25173;50.430;18.926;2023-02-04T07:08:33;98815.06;;;0.96;76.97
39487;BME280;25173;50.430;18.926;2023-02-04T07:11:54;98856.03;;;0.90;77.01
39487;BME280;25173;50.430;18.926;2023-02-04T07:15:15;98867.88;;;0.96;77.38
39487;BME280;25173;50.430;18.926;2023-02-04T07:18:36;98885.69;;;1.10;78.41
39487;BME280;25173;50.430;18.926;2023-02-04T07:21:56;98897.88;;;1.12;77.23
39487;BME280;25173;50.430;18.926;2023-02-04T07:25:17;98896.06;;;1.20;78.17
39487;BME280;25173;50.430;18.926;2023-02-04T07:28:37;98916.78;;;1.26;77.54
39487;BME280;25173;50.430;18.926;2023-02-04T07:32:00;98926.25;;;1.28;77.56
39487;BME280;25173;50.430;18.926;2023-02-04T07:35:21;98931.59;;;1.22;76.81
39487;BME280;25173;50.430;18.926;2023-02-04T07:38:42;98933.66;;;1.26;77.62
39487;BME280;25173;50.430;18.926;2023-02-04T07:42:03;98951.47;;;1.34;77.76
39487;BME280;25173;50.430;18.926;2023-02-04T07:45:29;98929.63;;;1.37;76.65
39487;BME280;25173;50.430;18.926;2023-02-04T07:48:50;98959.16;;;1.37;77.06
39487;BME280;25173;50.430;18.926;2023-02-04T07:52:10;98974.91;;;1.46;77.46
39487;BME280;25173;50.430;18.926;2023-02-04T07:55:34;98985.84;;;1.45;76.53
39487;BME280;25173;50.430;18.926;2023-02-04T07:58:55;98985.19;;;1.43;76.94
39487;BME280;25173;50.430;18.926;2023-02-04T08:02:16;98992.41;;;1.42;76.16
39487;BME280;25173;50.430;18.926;2023-02-04T08:05:36;99009.81;;;1.46;76.70
39487;BME280;25173;50.430;18.926;2023-02-04T08:08:57;99007.81;;;1.55;76.86
39487;BME280;25173;50.430;18.926;2023-02-04T08:12:17;99018.19;;;1.65;76.57
39487;BME280;25173;50.430;18.926;2023-02-04T08:15:38;99032.28;;;1.73;76.60
39487;BME280;25173;50.430;18.926;2023-02-04T08:18:59;99046.22;;;1.83;77.35
39487;BME280;25173;50.430;18.926;2023-02-04T08:22:20;99055.94;;;1.84;76.61
39487;BME280;25173;50.430;18.926;2023-02-04T08:25:41;99068.31;;;1.85;76.78
39487;BME280;25173;50.430;18.926;2023-02-04T08:29:02;99079.78;;;1.73;74.64
39487;BME280;25173;50.430;18.926;2023-02-04T08:32:25;99099.91;;;1.55;75.50
39487;BME280;25173;50.430;18.926;2023-02-04T08:35:48;99110.66;;;1.55;76.31
39487;BME280;25173;50.430;18.926;2023-02-04T08:39:10;99122.09;;;1.71;76.17
39487;BME280;25173;50.430;18.926;2023-02-04T08:42:31;99133.53;;;1.79;76.05
39487;BME280;25173;50.430;18.926;2023-02-04T08:45:52;99139.41;;;1.89;75.97
39487;BME280;25173;50.430;18.926;2023-02-04T08:49:13;99151.38;;;1.87;75.35
39487;BME280;25173;50.430;18.926;2023-02-04T08:52:33;99161.50;;;1.85;75.40
39487;BME280;25173;50.430;18.926;2023-02-04T08:55:56;99157.56;;;1.87;76.26
39487;BME280;25173;50.430;18.926;2023-02-04T08:59:16;99153.50;;;1.91;75.59
39487;BME280;25173;50.430;18.926;2023-02-04T09:02:37;99156.66;;;2.02;75.97
39487;BME280;25173;50.430;18.926;2023-02-04T09:05:59;99163.78;;;2.16;75.31
39487;BME280;25173;50.430;18.926;2023-02-04T09:09:20;99168.28;;;2.09;74.17
39487;BME280;25173;50.430;18.926;2023-02-04T09:12:40;99185.94;;;2.18;74.45
39487;BME280;25173;50.430;18.926;2023-02-04T09:16:02;99210.34;;;2.23;74.77
39487;BME280;25173;50.430;18.926;2023-02-04T09:19:22;99212.84;;;2.24;74.27
39487;BME280;25173;50.430;18.926;2023-02-04T09:22:44;99220.69;;;2.19;73.90
39487;BME280;25173;50.430;18.926;2023-02-04T09:26:05;99232.63;;;2.17;73.17
39487;BME280;25173;50.430;18.926;2023-02-04T09:29:26;99226.13;;;2.05;72.33
39487;BME280;25173;50.430;18.926;2023-02-04T09:32:46;99239.75;;;1.82;70.33
39487;BME280;25173;50.430;18.926;2023-02-04T09:36:07;99240.34;;;1.77;71.56
39487;BME280;25173;50.430;18.926;2023-02-04T09:39:27;99253.50;;;1.93;72.76
39487;BME280;25173;50.430;18.926;2023-02-04T09:42:49;99258.88;;;2.15;73.42
39487;BME280;25173;50.430;18.926;2023-02-04T09:46:19;99280.44;;;2.21;71.59
39487;BME280;25173;50.430;18.926;2023-02-04T09:49:43;99281.41;;;2.14;72.15
39487;BME280;25173;50.430;18.926;2023-02-04T09:53:06;99282.91;;;2.02;71.83
39487;BME280;25173;50.430;18.926;2023-02-04T09:56:31;99289.84;;;1.89;69.99
39487;BME280;25173;50.430;18.926;2023-02-04T09:59:52;99293.84;;;1.79;70.05
39487;BME280;25173;50.430;18.926;2023-02-04T10:03:18;99288.16;;;1.88;71.35
39487;BME280;25173;50.430;18.926;2023-02-04T10:06:42;99296.22;;;1.88;68.83
39487;BME280;25173;50.430;18.926;2023-02-04T10:10:03;99304.16;;;1.75;68.70
39487;BME280;25173;50.430;18.926;2023-02-04T10:13:39;99304.88;;;1.84;71.02
39487;BME280;25173;50.430;18.926;2023-02-04T10:17:01;99310.19;;;1.99;69.66
39487;BME280;25173;50.430;18.926;2023-02-04T10:20:23;99328.03;;;2.06;69.99
39487;BME280;25173;50.430;18.926;2023-02-04T10:23:47;99321.84;;;2.06;67.45
39487;BME280;25173;50.430;18.926;2023-02-04T10:27:10;99322.75;;;1.77;66.65
39487;BME280;25173;50.430;18.926;2023-02-04T10:30:40;99321.31;;;1.60;67.25
39487;BME280;25173;50.430;18.926;2023-02-04T10:34:22;99332.97;;;1.67;68.46
39487;BME280;25173;50.430;18.926;2023-02-04T10:37:43;99326.66;;;1.74;69.22
39487;BME280;25173;50.430;18.926;2023-02-04T10:41:04;99336.81;;;1.79;68.46
39487;BME280;25173;50.430;18.926;2023-02-04T10:44:27;99337.84;;;1.78;67.97
39487;BME280;25173;50.430;18.926;2023-02-04T10:47:53;99335.13;;;1.92;69.06
39487;BME280;25173;50.430;18.926;2023-02-04T10:51:14;99353.84;;;1.86;66.26
39487;BME280;25173;50.430;18.926;2023-02-04T10:54:37;99359.75;;;1.96;68.04
39487;BME280;25173;50.430;18.926;2023-02-04T10:57:58;99361.78;;;1.94;66.49
39487;BME280;25173;50.430;18.926;2023-02-04T11:01:25;99354.41;;;1.81;65.15
39487;BME280;25173;50.430;18.926;2023-02-04T11:04:53;99370.72;;;1.65;64.15
39487;BME280;25173;50.430;18.926;2023-02-04T11:08:35;99368.44;;;1.62;64.79
39487;BME280;25173;50.430;18.926;2023-02-04T11:11:56;99378.69;;;1.59;64.02
39487;BME280;25173;50.430;18.926;2023-02-04T11:19:10;99371.03;;;1.70;65.69
39487;BME280;25173;50.430;18.926;2023-02-04T11:22:41;99378.31;;;1.76;63.46
39487;BME280;25173;50.430;18.926;2023-02-04T11:26:12;99379.34;;;1.75;63.85
39487;BME280;25173;50.430;18.926;2023-02-04T11:29:34;99375.25;;;1.79;64.55
39487;BME280;25173;50.430;18.926;2023-02-04T11:33:02;99386.44;;;1.98;65.98
39487;BME280;25173;50.430;18.926;2023-02-04T11:36:23;99382.22;;;2.10;65.97
39487;BME280;25173;50.430;18.926;2023-02-04T11:39:48;99387.06;;;2.00;62.44
39487;BME280;25173;50.430;18.926;2023-02-04T11:43:14;99385.78;;;1.95;63.08
39487;BME280;25173;50.430;18.926;2023-02-04T11:46:35;99402.75;;;1.81;61.81
39487;BME280;25173;50.430;18.926;2023-02-04T11:49:58;99408.97;;;1.67;63.35
39487;BME280;25173;50.430;18.926;2023-02-04T11:53:23;99400.34;;;1.72;64.12
39487;BME280;25173;50.430;18.926;2023-02-04T11:56:45;99395.50;;;1.97;65.41
39487;BME280;25173;50.430;18.926;2023-02-04T12:00:27;99402.00;;;1.87;63.03
39487;BME280;25173;50.430;18.926;2023-02-04T12:03:50;99406.84;;;1.77;62.18
39487;BME280;25173;50.430;18.926;2023-02-04T12:07:20;99403.88;;;1.72;62.56
39487;BME280;25173;50.430;18.926;2023-02-04T12:10:50;99407.97;;;1.68;63.58
39487;BME280;25173;50.430;18.926;2023-02-04T12:14:18;99412.69;;;1.66;62.71
39487;BME280;25173;50.430;18.926;2023-02-04T12:17:39;99421.22;;;1.55;63.13
39487;BME280;25173;50.430;18.926;2023-02-04T12:21:03;99425.84;;;1.61;63.14
39487;BME280;25173;50.430;18.926;2023-02-04T12:24:24;99445.16;;;1.56;62.54
39487;BME280;25173;50.430;18.926;2023-02-04T12:27:44;99427.50;;;1.62;63.06
39487;BME280;25173;50.430;18.926;2023-02-04T12:31:05;99446.47;;;1.61;63.60
39487;BME280;25173;50.430;18.926;2023-02-04T12:34:26;99434.50;;;1.63;64.36
39487;BME280;25173;50.430;18.926;2023-02-04T12:37:46;99437.59;;;1.60;62.37
39487;BME280;25173;50.430;18.926;2023-02-04T12:41:07;99435.56;;;1.62;63.36
39487;BME280;25173;50.430;18.926;2023-02-04T12:44:27;99440.19;;;1.68;63.45
39487;BME280;25173;50.430;18.926;2023-02-04T12:47:48;99442.88;;;1.68;64.65
39487;BME280;25173;50.430;18.926;2023-02-04T12:51:09;99449.69;;;1.85;65.33
39487;BME280;25173;50.430;18.926;2023-02-04T12:54:29;99447.81;;;2.01;64.94
39487;BME280;25173;50.430;18.926;2023-02-04T12:57:50;99467.47;;;1.86;63.90
39487;BME280;25173;50.430;18.926;2023-02-04T13:01:11;99461.75;;;1.75;64.24
39487;BME280;25173;50.430;18.926;2023-02-04T13:04:32;99474.06;;;1.69;64.01
39487;BME280;25173;50.430;18.926;2023-02-04T13:07:53;99473.25;;;1.69;64.11
39487;BME280;25173;50.430;18.926;2023-02-04T13:11:13;99479.63;;;1.68;64.96
39487;BME280;25173;50.430;18.926;2023-02-04T13:14:34;99477.28;;;1.79;65.43
39487;BME280;25173;50.430;18.926;2023-02-04T13:17:54;99480.06;;;1.71;64.57
39487;BME280;25173;50.430;18.926;2023-02-04T13:21:15;99487.03;;;1.66;64.34
39487;BME280;25173;50.430;18.926;2023-02-04T13:24:36;99491.00;;;1.55;64.63
39487;BME280;25173;50.430;18.926;2023-02-04T13:27:56;99497.75;;;1.51;64.41
39487;BME280;25173;50.430;18.926;2023-02-04T13:31:17;99491.19;;;1.39;64.11
39487;BME280;25173;50.430;18.926;2023-02-04T13:34:37;99497.72;;;1.36;64.93
39487;BME280;25173;50.430;18.926;2023-02-04T13:37:58;99502.19;;;1.44;65.11
39487;BME280;25173;50.430;18.926;2023-02-04T13:41:18;99512.25;;;1.42;65.40
39487;BME280;25173;50.430;18.926;2023-02-04T13:44:39;99514.25;;;1.48;65.74
39487;BME280;25173;50.430;18.926;2023-02-04T13:48:00;99513.69;;;1.52;65.87
39487;BME280;25173;50.430;18.926;2023-02-04T13:51:20;99517.94;;;1.47;65.44
39487;BME280;25173;50.430;18.926;2023-02-04T13:54:41;99503.19;;;1.43;65.83
39487;BME280;25173;50.430;18.926;2023-02-04T13:58:01;99514.25;;;1.48;66.30
39487;BME280;25173;50.430;18.926;2023-02-04T14:01:22;99506.84;;;1.65;66.94
39487;BME280;25173;50.430;18.926;2023-02-04T14:04:42;99514.63;;;1.74;66.76
39487;BME280;25173;50.430;18.926;2023-02-04T14:08:03;99516.97;;;1.77;66.57
39487;BME280;25173;50.430;18.926;2023-02-04T14:11:24;99509.16;;;1.82;66.94
39487;BME280;25173;50.430;18.926;2023-02-04T14:14:44;99521.50;;;1.91;66.96
39487;BME280;25173;50.430;18.926;2023-02-04T14:18:05;99521.69;;;1.90;66.85
39487;BME280;25173;50.430;18.926;2023-02-04T14:21:26;99522.97;;;1.79;66.82
39487;BME280;25173;50.430;18.926;2023-02-04T14:24:48;99524.34;;;1.75;66.93
39487;BME280;25173;50.430;18.926;2023-02-04T14:28:10;99528.63;;;1.70;67.24
39487;BME280;25173;50.430;18.926;2023-02-04T14:31:31;99536.38;;;1.79;67.43
39487;BME280;25173;50.430;18.926;2023-02-04T14:34:52;99541.75;;;1.79;67.02
39487;BME280;25173;50.430;18.926;2023-02-04T14:38:12;99543.50;;;1.72;67.53
39487;BME280;25173;50.430;18.926;2023-02-04T14:41:35;99547.50;;;1.62;68.18
39487;BME280;25173;50.430;18.926;2023-02-04T14:44:55;99547.09;;;1.50;68.64
39487;BME280;25173;50.430;18.926;2023-02-04T14:48:16;99550.91;;;1.55;69.21
39487;BME280;25173;50.430;18.926;2023-02-04T14:51:37;99559.94;;;1.40;69.36
39487;BME280;25173;50.430;18.926;2023-02-04T14:54:57;99567.22;;;1.08;71.37
39487;BME280;25173;50.430;18.926;2023-02-04T14:58:18;99565.22;;;1.10;72.16
39487;BME280;25173;50.430;18.926;2023-02-04T15:02:04;99567.53;;;1.13;72.35
39487;BME280;25173;50.430;18.926;2023-02-04T15:05:29;99568.34;;;1.14;72.39
39487;BME280;25173;50.430;18.926;2023-02-04T15:08:49;99564.78;;;1.22;72.18
39487;BME280;25173;50.430;18.926;2023-02-04T15:12:10;99567.41;;;1.30;72.21
39487;BME280;25173;50.430;18.926;2023-02-04T15:15:30;99577.16;;;1.45;71.94
39487;BME280;25173;50.430;18.926;2023-02-04T15:18:51;99579.63;;;1.55;71.42
39487;BME280;25173;50.430;18.926;2023-02-04T15:22:11;99579.41;;;1.56;71.43
39487;BME280;25173;50.430;18.926;2023-02-04T15:25:32;99583.78;;;1.72;71.33
39487;BME280;25173;50.430;18.926;2023-02-04T15:28:52;99578.72;;;1.77;70.72
39487;BME280;25173;50.430;18.926;2023-02-04T15:32:14;99576.31;;;1.82;70.49
39487;BME280;25173;50.430;18.926;2023-02-04T15:35:35;99577.59;;;1.86;70.08
39487;BME280;25173;50.430;18.926;2023-02-04T15:38:56;99575.47;;;1.82;69.26
39487;BME280;25173;50.430;18.926;2023-02-04T15:42:16;99588.56;;;1.85;69.50
39487;BME280;25173;50.430;18.926;2023-02-04T15:45:37;99583.06;;;1.78;68.62
39487;BME280;25173;50.430;18.926;2023-02-04T15:49:00;99592.50;;;1.74;68.80
39487;BME280;25173;50.430;18.926;2023-02-04T15:52:21;99601.00;;;1.63;67.88
39487;BME280;25173;50.430;18.926;2023-02-04T15:55:42;99608.31;;;1.54;68.14
39487;BME280;25173;50.430;18.926;2023-02-04T15:59:03;99617.97;;;1.41;68.84
39487;BME280;25173;50.430;18.926;2023-02-04T16:02:24;99621.06;;;1.52;69.89
39487;BME280;25173;50.430;18.926;2023-02-04T16:05:45;99625.72;;;1.59;70.05
39487;BME280;25173;50.430;18.926;2023-02-04T16:09:05;99621.09;;;1.67;70.33
39487;BME280;25173;50.430;18.926;2023-02-04T16:12:26;99629.38;;;1.80;70.23
39487;BME280;25173;50.430;18.926;2023-02-04T16:15:48;99637.53;;;1.87;70.07
39487;BME280;25173;50.430;18.926;2023-02-04T16:19:09;99634.19;;;1.70;68.77
39487;BME280;25173;50.430;18.926;2023-02-04T16:22:30;99647.38;;;1.57;68.85
39487;BME280;25173;50.430;18.926;2023-02-04T16:25:50;99633.88;;;1.42;69.08
39487;BME280;25173;50.430;18.926;2023-02-04T16:29:11;99643.84;;;1.34;69.95
39487;BME280;25173;50.430;18.926;2023-02-04T16:32:32;99650.88;;;1.35;69.93
39487;BME280;25173;50.430;18.926;2023-02-04T16:36:00;99639.84;;;1.30;70.17
39487;BME280;25173;50.430;18.926;2023-02-04T16:39:21;99645.06;;;1.31;70.38
39487;BME280;25173;50.430;18.926;2023-02-04T16:42:42;99643.84;;;1.34;70.45
39487;BME280;25173;50.430;18.926;2023-02-04T16:46:03;99650.25;;;1.33;70.85
39487;BME280;25173;50.430;18.926;2023-02-04T16:49:23;99658.09;;;1.34;71.09
39487;BME280;25173;50.430;18.926;2023-02-04T16:52:44;99654.94;;;1.31;71.05
39487;BME280;25173;50.430;18.926;2023-02-04T16:56:05;99650.59;;;1.30;71.60
39487;BME280;25173;50.430;18.926;2023-02-04T16:59:26;99652.31;;;1.23;71.78
39487;BME280;25173;50.430;18.926;2023-02-04T17:02:47;99642.31;;;1.16;71.95
39487;BME280;25173;50.430;18.926;2023-02-04T17:06:08;99637.41;;;1.20;72.15